Time;durP1;ratioP1;P1;durP2;ratioP2;P2;SDS_P1;SDS_P2;PMS_P1;PMS_P2;Temp;Humidity;BMP_temperature;BMP_pressure;BME280_temperature;BME280_humidity;BME280_pressure;Samples;Min_cycle;Max_cycle;Signal;HPM_P1;HPM_P2
2022/05/10 00:02:11;;;;;;;0.60;0.10;;;18.80;99.90;;;;;;5033295;28;20447;-73
2022/05/10 00:04:40;;;;;;;0.70;0.10;;;18.90;99.90;;;;;;5032596;28;20459;-73
2022/05/10 00:07:10;;;;;;;0.60;0.10;;;18.90;99.90;;;;;;5031848;28;20811;-73
2022/05/10 00:09:37;;;;;;;0.60;0.10;;;18.90;99.90;;;;;;5031618;28;20458;-74
2022/05/10 00:12:06;;;;;;;0.70;0.10;;;18.90;99.90;;;;;;5030847;28;20452;-73
2022/05/10 00:14:34;;;;;;;0.60;0.10;;;18.80;99.90;;;;;;5031280;28;20732;-73
2022/05/10 00:17:02;;;;;;;0.60;0.20;;;18.80;99.90;;;;;;5030675;28;20457;-72
2022/05/10 00:19:30;;;;;;;0.60;0.20;;;19.70;99.90;;;;;;5031926;28;20992;-72
2022/05/10 00:21:59;;;;;;;0.60;0.20;;;18.60;99.90;;;;;;5024190;28;20502;-72
2022/05/10 00:24:28;;;;;;;0.60;0.10;;;18.50;99.90;;;;;;5030721;28;20548;-72
2022/05/10 00:26:56;;;;;;;0.67;0.17;;;18.50;99.90;;;;;;5030448;28;20459;-72
2022/05/10 00:29:24;;;;;;;0.60;0.10;;;18.30;99.90;;;;;;5031950;28;21012;-74
2022/05/10 00:31:52;;;;;;;0.60;0.20;;;18.30;99.90;;;;;;5032602;28;20546;-72
2022/05/10 00:34:20;;;;;;;0.60;0.10;;;18.20;99.90;;;;;;5031885;28;20597;-72
2022/05/10 00:36:48;;;;;;;0.60;0.10;;;18.20;99.90;;;;;;5030259;28;20548;-75
2022/05/10 00:39:16;;;;;;;0.60;0.10;;;18.10;99.90;;;;;;5031462;28;20472;-72
2022/05/10 00:41:55;;;;;;;0.60;0.10;;;18.10;99.90;;;;;;5031528;28;20443;-73
2022/05/10 00:44:30;;;;;;;0.60;0.20;;;18.10;99.90;;;;;;5030518;28;20449;-73
2022/05/10 00:47:05;;;;;;;0.60;0.17;;;18.00;1.00;;;;;;5030428;28;20448;-73
2022/05/10 00:49:39;;;;;;;0.70;0.20;;;18.00;1.00;;;;;;5030131;28;20450;-74
2022/05/10 00:52:13;;;;;;;0.60;0.10;;;18.00;1.00;;;;;;5043681;28;20762;-73
2022/05/10 00:54:45;;;;;;;0.60;0.10;;;17.90;1.00;;;;;;5050245;28;20513;-73
2022/05/10 00:57:24;;;;;;;0.60;0.10;;;17.90;1.00;;;;;;5049861;28;20442;-75
2022/05/10 00:59:59;;;;;;;0.60;0.20;;;17.90;1.00;;;;;;5030933;28;20854;-73
2022/05/10 01:02:34;;;;;;;0.60;0.20;;;17.90;1.00;;;;;;5012722;28;20524;-75
2022/05/10 01:05:09;;;;;;;0.60;0.20;;;17.90;1.00;;;;;;5008943;28;20490;-73
2022/05/10 01:07:49;;;;;;;0.60;0.10;;;17.80;1.00;;;;;;5011384;28;20467;-74
2022/05/10 01:10:25;;;;;;;0.60;0.10;;;17.80;1.00;;;;;;5030804;28;20435;-72
2022/05/10 01:13:00;;;;;;;0.60;0.10;;;17.80;1.00;;;;;;5030986;28;20491;-74
2022/05/10 01:15:29;;;;;;;0.60;0.20;;;17.80;1.00;;;;;;5029751;28;20672;-75
2022/05/10 01:17:58;;;;;;;0.60;0.10;;;17.80;1.00;;;;;;5028449;28;20479;-74
2022/05/10 01:20:34;;;;;;;0.60;0.10;;;17.80;1.00;;;;;;5029594;28;20570;-74
2022/05/10 01:23:19;;;;;;;0.60;0.10;;;17.80;1.00;;;;;;5029296;28;20443;-73
2022/05/10 01:25:57;;;;;;;0.60;0.10;;;17.80;1.00;;;;;;5028965;28;20864;-73
2022/05/10 01:28:31;;;;;;;0.60;0.20;;;17.80;1.00;;;;;;5016897;28;20463;-73
2022/05/10 01:31:03;;;;;;;0.60;0.17;;;17.80;1.00;;;;;;5030335;28;20444;-73
2022/05/10 01:33:35;;;;;;;0.70;0.20;;;17.70;1.00;;;;;;5029949;28;20478;-73
2022/05/10 01:36:16;;;;;;;0.60;0.10;;;17.70;1.00;;;;;;5029597;28;20445;-73
2022/05/10 01:38:52;;;;;;;0.60;0.20;;;17.70;1.00;;;;;;5030028;28;20897;-73
2022/05/10 01:41:35;;;;;;;0.60;0.10;;;17.60;1.00;;;;;;5030586;28;20482;-73
2022/05/10 01:44:13;;;;;;;0.60;0.10;;;17.60;1.00;;;;;;5030019;28;20465;-73
2022/05/10 01:46:41;;;;;;;0.60;0.20;;;15.60;1.00;;;;;;5029680;28;20464;-74
2022/05/10 01:49:18;;;;;;;0.60;0.10;;;17.40;1.00;;;;;;5032585;28;20490;-74
2022/05/10 01:51:51;;;;;;;0.60;0.10;;;17.40;1.00;;;;;;5033916;28;20446;-73
2022/05/10 01:54:56;;;;;;;0.70;0.20;;;17.40;1.00;;;;;;5033660;28;20468;-73
2022/05/10 01:57:24;;;;;;;0.60;0.20;;;17.30;1.00;;;;;;5032636;28;20985;-73
2022/05/10 02:00:04;;;;;;;0.60;0.30;;;17.30;1.00;;;;;;5033785;28;20968;-74
2022/05/10 02:02:36;;;;;;;0.77;0.77;;;17.30;1.00;;;;;;5034059;28;20918;-73
2022/05/10 02:05:10;;;;;;;0.60;0.13;;;17.30;1.00;;;;;;5033418;28;20439;-74
2022/05/10 02:07:42;;;;;;;3.70;2.10;;;17.30;1.00;;;;;;5033282;28;20494;-74
2022/05/10 02:10:17;;;;;;;0.60;0.10;;;17.30;1.00;;;;;;5033336;28;20447;-74
2022/05/10 02:12:53;;;;;;;0.60;0.10;;;17.20;1.00;;;;;;5033879;28;20796;-74
2022/05/10 02:15:33;;;;;;;0.60;0.10;;;17.20;1.00;;;;;;5033553;28;20461;-75
2022/05/10 02:18:05;;;;;;;0.70;0.40;;;17.20;1.00;;;;;;5032760;28;20475;-74
2022/05/10 02:20:42;;;;;;;0.60;0.20;;;17.20;1.00;;;;;;5033361;28;21046;-74
2022/05/10 02:23:14;;;;;;;0.60;0.20;;;17.10;1.00;;;;;;5034057;28;20441;-73
2022/05/10 02:25:46;;;;;;;0.60;0.10;;;17.20;1.00;;;;;;5033962;28;20948;-73
2022/05/10 02:28:20;;;;;;;0.60;0.10;;;17.10;1.00;;;;;;5015305;28;20470;-73
2022/05/10 02:30:53;;;;;;;0.60;0.10;;;17.10;1.00;;;;;;5015267;28;20439;-74
2022/05/10 02:33:21;;;;;;;0.60;0.10;;;17.10;1.00;;;;;;5015223;28;20462;-75
2022/05/10 02:35:54;;;;;;;0.60;0.20;;;17.00;1.00;;;;;;5026814;28;20455;-73
2022/05/10 02:38:24;;;;;;;0.60;0.10;;;17.00;1.00;;;;;;5033115;28;20467;-74
2022/05/10 02:40:55;;;;;;;0.60;0.10;;;17.00;1.00;;;;;;5032536;28;20492;-74
2022/05/10 02:43:27;;;;;;;0.60;0.10;;;17.10;1.00;;;;;;5033101;28;20445;-73
2022/05/10 02:45:56;;;;;;;0.60;0.10;;;17.10;1.00;;;;;;5032142;28;20549;-72
2022/05/10 02:48:28;;;;;;;0.60;0.10;;;17.10;1.00;;;;;;5032048;28;20472;-73
2022/05/10 02:50:56;;;;;;;0.60;0.10;;;17.10;1.00;;;;;;5033077;28;20435;-74
2022/05/10 02:53:25;;;;;;;0.60;0.23;;;17.10;1.00;;;;;;5032831;28;20451;-74
2022/05/10 02:55:56;;;;;;;0.60;0.10;;;17.10;1.00;;;;;;5032478;28;20481;-74
2022/05/10 02:58:30;;;;;;;0.60;0.20;;;17.00;1.00;;;;;;5030701;28;20494;-74
2022/05/10 03:01:13;;;;;;;0.60;0.10;;;17.00;1.00;;;;;;5032202;28;20481;-73
2022/05/10 03:03:41;;;;;;;0.60;0.10;;;17.00;1.00;;;;;;5032402;28;20445;-75
2022/05/10 03:06:09;;;;;;;0.60;0.10;;;17.00;1.00;;;;;;5030537;28;20864;-73
2022/05/10 03:08:36;;;;;;;0.60;0.20;;;16.90;1.00;;;;;;5032349;28;20479;-73
2022/05/10 03:11:04;;;;;;;2.30;2.10;;;16.90;1.00;;;;;;5032937;28;20441;-73
2022/05/10 03:13:32;;;;;;;0.60;0.13;;;16.90;1.00;;;;;;5031944;28;20451;-75
2022/05/10 03:16:01;;;;;;;0.60;0.10;;;17.00;1.00;;;;;;5032228;28;20460;-74
2022/05/10 03:18:29;;;;;;;0.60;0.13;;;17.00;1.00;;;;;;5031792;28;20549;-74
2022/05/10 03:20:57;;;;;;;1.50;1.40;;;17.00;1.00;;;;;;5032533;28;20502;-74
2022/05/10 03:23:27;;;;;;;2.00;1.50;;;16.90;1.00;;;;;;5032502;28;20456;-75
2022/05/10 03:25:56;;;;;;;0.70;0.40;;;16.90;1.00;;;;;;5028772;28;20550;-74
2022/05/10 03:28:24;;;;;;;0.60;0.20;;;16.80;1.00;;;;;;5012306;28;20593;-73
2022/05/10 03:30:52;;;;;;;0.60;0.10;;;16.80;1.00;;;;;;5013217;28;20457;-72
2022/05/10 03:33:22;;;;;;;0.60;0.20;;;16.70;1.00;;;;;;5013289;28;20462;-74
2022/05/10 03:35:50;;;;;;;0.60;0.20;;;16.60;1.00;;;;;;5024719;28;20540;-74
2022/05/10 03:38:17;;;;;;;0.60;0.10;;;16.60;1.00;;;;;;5031820;28;20483;-74
2022/05/10 03:40:45;;;;;;;0.60;0.20;;;16.60;1.00;;;;;;5031973;28;20460;-72
2022/05/10 03:43:13;;;;;;;1.00;0.90;;;16.50;1.00;;;;;;5032232;28;20444;-74
2022/05/10 03:45:41;;;;;;;0.60;0.10;;;16.50;1.00;;;;;;5032066;28;20454;-72
2022/05/10 03:48:09;;;;;;;0.60;0.13;;;16.40;1.00;;;;;;5032548;28;20484;-72
2022/05/10 03:50:39;;;;;;;0.60;0.10;;;16.40;1.00;;;;;;5032220;28;20766;-73
2022/05/10 03:53:07;;;;;;;0.60;0.10;;;16.40;1.00;;;;;;5032120;28;20450;-73
2022/05/10 03:55:35;;;;;;;0.60;0.10;;;;;;;;;;5032217;28;20459;-73
2022/05/10 03:58:04;;;;;;;0.60;0.20;;;17.50;1.00;;;;;;5031381;28;20474;-74
2022/05/10 04:00:33;;;;;;;0.60;0.10;;;16.30;1.00;;;;;;5064581;23;20501;-77
2022/05/10 04:03:01;;;;;;;0.60;0.10;;;16.40;1.00;;;;;;5034893;28;20488;-77
2022/05/10 04:05:29;;;;;;;0.60;0.13;;;16.30;1.00;;;;;;5034033;28;20447;-78
2022/05/10 04:07:58;;;;;;;0.60;0.10;;;16.30;1.00;;;;;;5032524;28;20439;-78
2022/05/10 04:10:26;;;;;;;0.60;0.10;;;15.40;1.00;;;;;;5032857;28;20474;-78
2022/05/10 04:12:54;;;;;;;0.60;0.20;;;16.30;1.00;;;;;;5033610;28;20522;-78
2022/05/10 04:15:22;;;;;;;0.60;0.17;;;16.40;1.00;;;;;;5032361;28;20455;-76
2022/05/10 04:17:51;;;;;;;0.60;0.10;;;16.40;1.00;;;;;;5041713;28;20424;-76
2022/05/10 04:20:19;;;;;;;0.60;0.10;;;16.30;1.00;;;;;;5033324;28;20474;-76
2022/05/10 04:22:47;;;;;;;0.60;0.20;;;16.30;1.00;;;;;;5036233;28;20488;-76
2022/05/10 04:25:18;;;;;;;0.60;0.10;;;16.30;1.00;;;;;;5038006;28;20458;-76
2022/05/10 04:27:46;;;;;;;2.83;2.73;;;16.30;1.00;;;;;;5016375;28;20506;-76
2022/05/10 04:30:14;;;;;;;0.60;0.10;;;16.30;1.00;;;;;;5011929;28;20468;-77
2022/05/10 04:32:42;;;;;;;0.60;0.10;;;16.30;1.00;;;;;;5027659;28;20452;-78
2022/05/10 04:35:11;;;;;;;0.60;0.10;;;16.30;1.00;;;;;;5024419;28;20922;-77
2022/05/10 04:37:40;;;;;;;0.60;0.20;;;16.30;1.00;;;;;;5032042;28;20455;-76
2022/05/10 04:42:52;;;;;;;0.60;0.10;;;16.40;1.00;;;;;;5009572;28;21005;-77
2022/05/10 04:45:20;;;;;;;0.60;0.10;;;16.50;1.00;;;;;;5030848;28;20541;-77
2022/05/10 04:47:48;;;;;;;0.60;0.10;;;16.50;1.00;;;;;;5032007;28;20995;-77
2022/05/10 04:50:16;;;;;;;0.60;0.10;;;16.60;1.00;;;;;;5033678;28;20469;-75
2022/05/10 04:52:45;;;;;;;0.60;0.10;;;16.80;1.00;;;;;;5031750;28;20960;-73
2022/05/10 04:55:27;;;;;;;0.60;0.20;;;;;;;;;;5031315;28;20447;-76
2022/05/10 04:57:59;;;;;;;0.60;0.10;;;17.00;1.00;;;;;;5030450;28;21022;-74
2022/05/10 05:00:29;;;;;;;0.60;0.10;;;17.30;1.00;;;;;;5031310;28;20575;-76
2022/05/10 05:02:57;;;;;;;0.60;0.20;;;17.30;1.00;;;;;;5031254;28;20993;-74
2022/05/10 05:05:25;;;;;;;0.60;0.10;;;17.50;1.00;;;;;;5032975;28;20453;-76
2022/05/10 05:07:53;;;;;;;0.60;0.30;;;17.50;1.00;;;;;;5032890;28;20454;-75
2022/05/10 05:10:22;;;;;;;0.60;0.20;;;17.60;1.00;;;;;;5025733;28;20487;-74
2022/05/10 05:12:50;;;;;;;0.60;0.10;;;17.70;99.90;;;;;;5013280;28;20466;-74
2022/05/10 05:15:19;;;;;;;0.60;0.10;;;17.60;99.90;;;;;;5028826;28;20455;-76
2022/05/10 05:17:49;;;;;;;0.60;0.20;;;17.60;99.90;;;;;;5021800;28;20454;-78
2022/05/10 05:20:17;;;;;;;0.70;0.30;;;17.70;99.90;;;;;;5012132;28;20513;-78
2022/05/10 05:22:45;;;;;;;0.60;0.10;;;17.80;99.90;;;;;;5019076;28;20490;-79
2022/05/10 05:25:13;;;;;;;0.60;0.10;;;17.80;99.90;;;;;;5022101;28;20459;-75
2022/05/10 05:27:41;;;;;;;0.60;0.20;;;17.80;99.90;;;;;;5020260;28;20451;-80
2022/05/10 05:30:16;;;;;;;0.70;0.30;;;17.70;99.90;;;;;;5026588;28;20877;-76
2022/05/10 05:32:45;;;;;;;0.60;0.13;;;17.80;99.90;;;;;;5041978;28;20453;-78
2022/05/10 05:35:13;;;;;;;0.60;0.20;;;17.90;99.90;;;;;;5038764;28;20482;-78
2022/05/10 05:37:41;;;;;;;1.90;1.80;;;18.00;99.90;;;;;;5021818;28;20447;-79
2022/05/10 05:40:12;;;;;;;0.60;0.10;;;18.10;99.90;;;;;;5027609;28;20523;-73
2022/05/10 05:42:46;;;;;;;0.90;0.43;;;18.10;99.90;;;;;;5028627;28;20956;-77
2022/05/10 05:45:17;;;;;;;0.60;0.20;;;18.00;99.90;;;;;;5029664;28;20448;-74
2022/05/10 05:47:47;;;;;;;0.60;0.13;;;18.00;99.90;;;;;;5014808;28;20451;-76
2022/05/10 05:50:18;;;;;;;0.70;0.30;;;18.10;99.90;;;;;;5014336;28;20471;-76
2022/05/10 05:52:46;;;;;;;0.60;0.10;;;18.20;99.90;;;;;;5053492;28;20525;-76
2022/05/10 05:55:15;;;;;;;0.70;0.30;;;18.30;99.90;;;;;;5055759;28;20519;-75
2022/05/10 05:57:43;;;;;;;0.60;0.20;;;18.30;99.90;;;;;;5039594;28;20439;-75
2022/05/10 06:00:19;;;;;;;0.60;0.10;;;18.40;99.90;;;;;;5037842;28;20490;-74
2022/05/10 06:02:50;;;;;;;0.60;0.20;;;18.50;99.90;;;;;;5028810;28;20485;-75
2022/05/10 06:05:19;;;;;;;0.60;0.20;;;18.50;99.90;;;;;;5034066;28;20455;-74
2022/05/10 06:07:47;;;;;;;0.60;0.10;;;18.60;99.90;;;;;;5033690;28;20488;-73
2022/05/10 06:10:16;;;;;;;0.60;0.10;;;18.70;99.90;;;;;;5047720;28;20605;-73
2022/05/10 06:12:44;;;;;;;0.60;0.20;;;18.80;99.90;;;;;;5053750;28;20543;-74
2022/05/10 06:15:14;;;;;;;0.70;0.30;;;18.80;99.90;;;;;;5038762;28;20944;-74
2022/05/10 06:17:46;;;;;;;0.60;0.17;;;19.00;99.90;;;;;;5033233;28;20547;-73
2022/05/10 06:20:18;;;;;;;0.60;0.10;;;19.00;99.90;;;;;;5028290;28;20836;-73
2022/05/10 06:22:46;;;;;;;15.20;13.77;;;19.00;99.90;;;;;;5024146;28;20476;-75
2022/05/10 06:25:17;;;;;;;0.60;0.13;;;19.10;99.90;;;;;;5044897;28;20431;-74
2022/05/10 06:27:47;;;;;;;0.60;0.20;;;19.30;99.90;;;;;;5049088;28;20451;-79
2022/05/10 06:30:16;;;;;;;0.60;0.20;;;19.30;99.90;;;;;;5036964;28;20479;-79
2022/05/10 06:32:44;;;;;;;0.60;0.10;;;19.40;99.90;;;;;;5028650;28;20787;-79
2022/05/10 06:35:12;;;;;;;0.63;0.10;;;19.40;99.90;;;;;;5026332;28;20516;-78
2022/05/10 06:40:33;;;;;;;0.60;0.10;;;19.40;99.90;;;;;;5014806;28;20617;-79
2022/05/10 06:43:02;;;;;;;0.70;0.10;;;19.30;99.90;;;;;;5014813;28;20482;-78
2022/05/10 06:45:30;;;;;;;0.60;0.10;;;19.40;99.90;;;;;;5014197;28;20844;-78
2022/05/10 06:47:57;;;;;;;0.60;0.10;;;19.30;99.90;;;;;;5022442;28;20453;-77
2022/05/10 06:50:26;;;;;;;0.60;0.10;;;19.20;99.90;;;;;;5033611;28;20972;-79
2022/05/10 06:52:58;;;;;;;0.70;0.20;;;17.50;99.90;;;;;;5032986;28;20538;-76
2022/05/10 06:55:27;;;;;;;0.60;0.17;;;19.30;99.90;;;;;;5026994;28;20480;-76
2022/05/10 06:57:55;;;;;;;0.70;0.40;;;19.30;99.90;;;;;;5026079;28;20449;-77
2022/05/10 07:00:30;;;;;;;0.60;0.20;;;19.30;99.90;;;;;;5014016;28;20483;-77
2022/05/10 07:02:58;;;;;;;0.60;0.10;;;20.00;99.90;;;;;;5013758;28;21071;-77
2022/05/10 07:05:26;;;;;;;0.60;0.13;;;19.40;99.90;;;;;;5013346;28;20445;-76
2022/05/10 07:07:53;;;;;;;0.60;0.10;;;19.40;99.90;;;;;;5013668;28;20451;-77
2022/05/10 07:10:23;;;;;;;0.60;0.10;;;19.50;99.90;;;;;;5012927;28;20568;-75
2022/05/10 07:12:51;;;;;;;0.67;0.10;;;19.60;99.90;;;;;;5016026;28;20530;-76
2022/05/10 07:15:20;;;;;;;0.60;0.10;;;19.60;99.90;;;;;;5023029;28;20457;-75
2022/05/10 07:17:48;;;;;;;0.70;0.20;;;19.60;99.90;;;;;;5026011;28;20444;-76
2022/05/10 07:20:17;;;;;;;0.60;0.10;;;19.60;99.90;;;;;;5033979;28;21013;-76
2022/05/10 07:22:45;;;;;;;0.60;0.13;;;19.60;99.90;;;;;;5032496;28;20577;-77
2022/05/10 07:25:14;;;;;;;0.60;0.10;;;19.60;99.90;;;;;;5031583;28;20447;-76
2022/05/10 07:27:44;;;;;;;0.70;0.20;;;19.60;99.90;;;;;;5032224;28;20452;-77
2022/05/10 07:30:14;;;;;;;0.70;0.10;;;19.60;99.90;;;;;;5033237;28;20475;-77
2022/05/10 07:32:43;;;;;;;0.70;0.10;;;19.60;99.90;;;;;;5034235;28;20454;-76
2022/05/10 07:35:11;;;;;;;0.60;0.10;;;19.60;99.90;;;;;;5035608;28;20940;-77
2022/05/10 07:37:40;;;;;;;0.60;0.10;;;19.60;99.90;;;;;;5037218;28;20468;-76
2022/05/10 07:40:11;;;;;;;0.60;0.20;;;19.70;99.90;;;;;;5037639;28;20470;-75
2022/05/10 07:42:41;;;;;;;0.70;0.10;;;19.70;99.90;;;;;;5043283;28;20760;-75
2022/05/10 07:45:11;;;;;;;0.60;0.10;;;19.70;99.90;;;;;;5035486;28;20480;-77
2022/05/10 07:47:43;;;;;;;0.60;0.10;;;19.80;99.90;;;;;;5032079;28;20973;-75
2022/05/10 07:50:17;;;;;;;0.70;0.20;;;19.90;99.90;;;;;;5033233;28;20473;-77
2022/05/10 07:52:45;;;;;;;0.70;0.20;;;20.00;99.90;;;;;;5031751;28;20456;-75
2022/05/10 07:55:14;;;;;;;0.60;0.10;;;20.00;99.90;;;;;;5030959;28;20452;-75
2022/05/10 07:57:43;;;;;;;0.70;0.10;;;20.10;99.90;;;;;;5031081;28;20835;-75
2022/05/10 08:00:15;;;;;;;0.70;0.20;;;20.20;99.90;;;;;;5031543;28;20472;-76
2022/05/10 08:02:44;;;;;;;1.30;1.03;;;20.20;99.90;;;;;;5031724;28;20446;-76
2022/05/10 08:05:18;;;;;;;0.70;0.10;;;20.30;99.90;;;;;;5030040;28;20564;-74
2022/05/10 08:07:46;;;;;;;0.70;0.20;;;20.40;99.90;;;;;;5019510;28;20448;-76
2022/05/10 08:10:14;;;;;;;0.70;0.20;;;20.40;99.90;;;;;;5011409;28;20470;-75
2022/05/10 08:12:42;;;;;;;0.60;0.10;;;20.40;99.90;;;;;;5009284;28;20466;-78
2022/05/10 08:15:11;;;;;;;0.70;0.10;;;20.50;99.90;;;;;;5030091;28;20934;-76
2022/05/10 08:17:41;;;;;;;0.70;0.20;;;20.70;99.90;;;;;;5030454;28;20568;-76
2022/05/10 08:20:09;;;;;;;0.70;0.20;;;20.80;99.90;;;;;;5031503;28;20525;-75
2022/05/10 08:22:37;;;;;;;0.70;0.13;;;20.80;99.90;;;;;;5032275;28;20459;-74
2022/05/10 08:25:06;;;;;;;0.70;0.10;;;20.80;99.90;;;;;;5034326;28;20561;-75
2022/05/10 08:27:35;;;;;;;0.70;0.10;;;20.80;99.90;;;;;;5037667;28;20487;-75
2022/05/10 08:30:03;;;;;;;0.70;0.10;;;20.90;99.90;;;;;;5035109;28;20628;-75
2022/05/10 08:32:31;;;;;;;0.70;0.10;;;21.00;99.90;;;;;;5033105;28;20446;-74
2022/05/10 08:35:20;;;;;;;0.70;0.10;;;21.10;99.90;;;;;;5032599;28;20526;-76
2022/05/10 08:37:48;;;;;;;0.80;0.40;;;21.20;99.90;;;;;;5031835;28;20446;-76
2022/05/10 08:40:25;;;;;;;0.70;0.20;;;21.40;99.90;;;;;;5030542;28;20464;-76
2022/05/10 08:42:56;;;;;;;0.70;0.20;;;21.50;99.90;;;;;;5031233;28;20964;-74
2022/05/10 08:45:25;;;;;;;0.70;0.10;;;22.30;99.90;;;;;;5031093;28;21016;-75
2022/05/10 08:47:54;;;;;;;0.70;0.10;;;21.60;99.90;;;;;;5031153;28;20449;-75
2022/05/10 08:50:24;;;;;;;0.70;0.20;;;21.80;99.90;;;;;;5031169;28;20987;-76
2022/05/10 08:53:08;;;;;;;0.70;0.20;;;21.90;99.90;;;;;;5030739;28;20446;-77
2022/05/10 08:55:44;;;;;;;0.70;0.17;;;21.90;99.90;;;;;;5030857;28;20445;-74
2022/05/10 08:58:39;;;;;;;0.70;0.10;;;22.00;99.90;;;;;;5030217;28;20761;-76
2022/05/10 09:01:33;;;;;;;0.80;0.50;;;22.00;99.90;;;;;;5031456;28;20492;-75
2022/05/10 09:04:09;;;;;;;4.83;4.50;;;22.10;99.90;;;;;;5030849;28;20481;-78
2022/05/10 09:06:55;;;;;;;1.13;0.73;;;22.10;99.90;;;;;;5032108;28;20881;-76
2022/05/10 09:09:29;;;;;;;0.70;0.10;;;22.10;99.90;;;;;;5022278;28;20960;-76
2022/05/10 09:12:12;;;;;;;0.70;0.20;;;22.10;99.90;;;;;;5024158;28;20459;-77
2022/05/10 09:14:48;;;;;;;0.70;0.20;;;22.20;99.90;;;;;;5030970;28;20596;-76
2022/05/10 09:17:17;;;;;;;0.70;0.20;;;22.20;99.90;;;;;;5030568;28;20452;-76
2022/05/10 09:19:45;;;;;;;0.70;0.10;;;22.20;99.90;;;;;;5030244;28;20478;-75
2022/05/10 09:22:52;;;;;;;0.70;0.10;;;22.20;99.90;;;;;;5030902;28;20684;-75
2022/05/10 09:25:29;;;;;;;2.00;1.90;;;22.20;99.90;;;;;;5029880;28;20489;-75
2022/05/10 09:27:56;;;;;;;0.80;0.50;;;22.30;99.90;;;;;;5031878;28;20518;-74
2022/05/10 09:30:30;;;;;;;0.70;0.23;;;22.30;99.90;;;;;;5031544;28;20537;-75
2022/05/10 09:36:06;;;;;;;0.70;0.20;;;22.20;99.90;;;;;;5031174;28;20866;-76
2022/05/10 09:38:47;;;;;;;1.00;0.60;;;22.30;99.90;;;;;;5030438;28;20444;-75
2022/05/10 09:41:31;;;;;;;0.70;0.20;;;22.30;99.90;;;;;;5031544;28;20527;-74
2022/05/10 09:44:15;;;;;;;2.43;1.73;;;22.40;99.90;;;;;;5030427;28;20834;-75
2022/05/10 09:46:43;;;;;;;0.80;0.30;;;22.60;99.90;;;;;;5030977;28;20465;-75
2022/05/10 09:49:30;;;;;;;0.70;0.10;;;22.80;99.90;;;;;;5031337;28;20463;-76
2022/05/10 09:52:00;;;;;;;0.70;0.17;;;22.90;99.90;;;;;;5032627;28;20452;-75
2022/05/10 09:54:36;;;;;;;0.70;0.20;;;23.00;99.90;;;;;;5031468;28;20446;-77
2022/05/10 09:57:09;;;;;;;0.70;0.10;;;23.10;99.90;;;;;;5030405;28;20946;-75
2022/05/10 09:59:43;;;;;;;0.70;0.20;;;23.40;99.90;;;;;;5031166;28;20477;-74
2022/05/10 10:02:11;;;;;;;0.70;0.20;;;23.50;99.90;;;;;;5033931;28;20885;-76
2022/05/10 10:04:40;;;;;;;0.70;0.10;;;23.60;99.90;;;;;;5034472;28;20849;-76
2022/05/10 10:07:13;;;;;;;2.40;1.53;;;23.50;99.90;;;;;;5032239;28;20563;-79
2022/05/10 10:09:45;;;;;;;0.70;0.33;;;23.40;99.90;;;;;;5036492;28;20486;-77
2022/05/10 10:12:27;;;;;;;1.00;0.93;;;23.40;99.90;;;;;;5031462;28;20936;-79
2022/05/10 10:14:56;;;;;;;0.90;0.70;;;23.30;99.90;;;;;;5041132;28;20453;-77
2022/05/10 10:17:28;;;;;;;1.33;1.00;;;23.10;99.90;;;;;;5039685;28;20525;-78
2022/05/10 10:20:06;;;;;;;0.70;0.20;;;23.20;99.90;;;;;;5040854;28;20502;-78
2022/05/10 10:22:40;;;;;;;3.20;1.90;;;23.30;99.90;;;;;;5034523;28;20463;-74
2022/05/10 10:25:16;;;;;;;0.70;0.20;;;23.40;99.90;;;;;;5029379;28;20481;-75
2022/05/10 10:27:48;;;;;;;0.70;0.13;;;23.50;99.90;;;;;;5028177;28;20542;-76
2022/05/10 10:30:23;;;;;;;0.70;0.10;;;23.80;99.90;;;;;;5037863;28;20545;-80
2022/05/10 10:32:55;;;;;;;0.70;0.10;;;23.90;99.90;;;;;;5045310;28;20471;-81
2022/05/10 10:35:32;;;;;;;1.10;0.60;;;24.10;99.90;;;;;;5041783;28;20814;-77
2022/05/10 10:38:12;;;;;;;0.70;0.10;;;24.20;99.90;;;;;;5030439;28;20528;-80
2022/05/10 10:40:45;;;;;;;1.33;1.00;;;24.40;99.90;;;;;;5029314;28;20479;-78
2022/05/10 10:43:23;;;;;;;1.73;1.00;;;24.30;99.90;;;;;;5028924;28;20548;-77
2022/05/10 10:45:55;;;;;;;1.10;0.33;;;24.20;99.90;;;;;;5029633;28;20482;-78
2022/05/10 10:48:29;;;;;;;1.60;1.07;;;24.30;99.90;;;;;;5024134;28;20528;-78
2022/05/10 10:50:58;;;;;;;1.47;0.70;;;24.50;99.90;;;;;;5028958;28;20459;-77
2022/05/10 10:53:29;;;;;;;0.90;0.50;;;24.50;99.90;;;;;;5024018;28;20440;-78
2022/05/10 10:56:21;;;;;;;0.70;0.20;;;24.50;99.90;;;;;;5035021;28;20452;-79
2022/05/10 10:59:00;;;;;;;0.70;0.20;;;24.70;99.90;;;;;;5033624;28;20487;-80
2022/05/10 11:01:45;;;;;;;1.77;1.23;;;24.70;99.90;;;;;;5038139;28;20440;-78
2022/05/10 11:04:26;;;;;;;8.83;2.53;;;24.80;99.90;;;;;;5037071;28;20446;-79
2022/05/10 11:06:55;;;;;;;1.70;1.30;;;24.80;99.90;;;;;;5032098;28;20471;-80
2022/05/10 11:09:45;;;;;;;0.90;0.43;;;24.70;99.90;;;;;;5026389;28;20511;-78
2022/05/10 11:12:24;;;;;;;0.70;0.20;;;24.70;99.90;;;;;;5028831;28;20459;-80
2022/05/10 11:15:03;;;;;;;0.70;0.30;;;24.70;99.90;;;;;;5035732;28;20452;-79
2022/05/10 11:17:44;;;;;;;3.60;1.60;;;24.70;99.90;;;;;;5032134;28;20520;-80
2022/05/10 11:20:28;;;;;;;0.70;0.10;;;24.70;99.90;;;;;;5040786;28;20464;-79
2022/05/10 11:23:03;;;;;;;1.00;0.57;;;24.70;99.90;;;;;;5037070;28;20449;-79
2022/05/10 11:26:00;;;;;;;0.70;0.10;;;24.80;99.90;;;;;;5032335;28;20475;-78
2022/05/10 11:29:16;;;;;;;0.70;0.20;;;25.10;99.90;;;;;;5039139;28;20504;-80
2022/05/10 11:31:53;;;;;;;0.70;0.20;;;25.10;99.90;;;;;;4961223;29;20538;-79
2022/05/10 11:34:49;;;;;;;0.70;0.10;;;25.30;99.90;;;;;;4963316;29;20454;-80
2022/05/10 11:37:27;;;;;;;0.70;0.20;;;25.50;99.90;;;;;;5016335;28;20474;-78
2022/05/10 11:40:21;;;;;;;0.70;0.13;;;25.60;99.90;;;;;;5024020;28;20565;-78
2022/05/10 11:43:09;;;;;;;0.70;0.20;;;25.60;99.90;;;;;;5032036;28;20468;-82
2022/05/10 11:45:53;;;;;;;0.70;0.10;;;25.80;99.90;;;;;;5033919;28;20575;-78
2022/05/10 11:48:39;;;;;;;1.33;0.87;;;25.80;99.90;;;;;;5025206;28;20881;-78
2022/05/10 11:51:42;;;;;;;0.70;0.10;;;25.90;99.90;;;;;;5027515;28;20488;-80
2022/05/10 11:54:40;;;;;;;0.70;0.13;;;26.00;99.90;;;;;;5026150;28;20767;-80
2022/05/10 11:57:11;;;;;;;0.80;0.30;;;26.10;99.90;;;;;;5034636;28;20437;-80
2022/05/10 11:59:41;;;;;;;10.20;9.60;;;26.10;99.90;;;;;;5028300;28;20502;-78
2022/05/10 12:02:43;;;;;;;1.43;0.83;;;26.10;99.90;;;;;;5026053;28;20458;-79
2022/05/10 12:05:27;;;;;;;0.70;0.20;;;25.80;99.90;;;;;;5026225;28;20463;-78
2022/05/10 12:07:57;;;;;;;2.90;1.80;;;25.70;99.90;;;;;;5023585;28;20549;-78
2022/05/10 12:10:37;;;;;;;0.80;0.50;;;25.50;99.90;;;;;;5030064;28;20457;-77
2022/05/10 12:13:10;;;;;;;0.70;0.20;;;25.50;99.90;;;;;;5021987;28;20462;-78
2022/05/10 12:21:58;;;;;;;1.37;1.23;;;25.60;99.90;;;;;;5032772;28;20533;-78
2022/05/10 12:24:34;;;;;;;0.70;0.23;;;25.70;99.90;;;;;;5033542;28;20450;-76
2022/05/10 12:27:36;;;;;;;1.00;0.50;;;25.80;99.90;;;;;;5032101;28;20476;-78
2022/05/10 12:30:29;;;;;;;1.53;1.43;;;25.70;99.90;;;;;;5028827;28;20464;-79
2022/05/10 12:32:58;;;;;;;2.50;1.50;;;25.70;99.90;;;;;;5031335;28;20471;-79
2022/05/10 12:36:16;;;;;;;11.10;10.53;;;25.70;99.90;;;;;;5035226;28;20444;-77
2022/05/10 12:38:49;;;;;;;0.70;0.20;;;25.90;99.90;;;;;;5036373;28;20537;-79
2022/05/10 12:41:48;;;;;;;2.13;1.90;;;25.90;99.90;;;;;;5038327;28;20444;-78
2022/05/10 12:44:46;;;;;;;2.87;2.43;;;25.80;99.90;;;;;;5038693;28;20439;-78
2022/05/10 12:47:42;;;;;;;1.57;1.47;;;25.60;99.90;;;;;;5024817;28;20574;-79
2022/05/10 12:50:23;;;;;;;0.70;0.20;;;25.30;99.90;;;;;;5037582;28;20540;-78
2022/05/10 12:52:50;;;;;;;1.10;0.90;;;25.20;99.90;;;;;;5038434;28;20837;-77
2022/05/10 12:55:24;;;;;;;2.10;1.33;;;25.20;99.90;;;;;;5038678;28;20445;-78
2022/05/10 12:57:57;;;;;;;0.70;0.10;;;25.20;99.90;;;;;;5031826;28;20456;-77
2022/05/10 13:00:30;;;;;;;1.23;0.50;;;25.40;99.90;;;;;;5032963;28;20570;-76
2022/05/10 13:03:06;;;;;;;0.70;0.20;;;25.50;99.90;;;;;;5036208;28;20924;-78
2022/05/10 13:05:51;;;;;;;1.47;1.37;;;25.70;99.90;;;;;;5034513;28;20448;-78
2022/05/10 13:08:41;;;;;;;0.70;0.30;;;25.70;99.90;;;;;;5047892;28;20448;-77
2022/05/10 13:11:38;;;;;;;1.03;0.90;;;25.70;99.90;;;;;;5043401;28;20910;-76
2022/05/10 13:14:08;;;;;;;1.10;0.90;;;25.70;99.90;;;;;;5029615;28;20523;-78
2022/05/10 13:16:36;;;;;;;1.10;0.40;;;25.70;99.90;;;;;;5024843;28;20468;-78
2022/05/10 13:19:06;;;;;;;0.70;0.20;;;;;;;;;;5030697;28;20922;-77
2022/05/10 13:21:34;;;;;;;0.70;0.10;;;25.80;99.90;;;;;;5031139;28;20944;-78
2022/05/10 13:24:10;;;;;;;0.90;0.40;;;25.90;99.90;;;;;;5036246;28;20981;-77
2022/05/10 13:26:53;;;;;;;1.30;1.03;;;26.20;99.90;;;;;;5044042;28;20476;-78
2022/05/10 13:29:21;;;;;;;1.23;0.70;;;26.30;99.90;;;;;;5020722;28;20482;-78
2022/05/10 13:31:49;;;;;;;2.00;1.40;;;26.40;99.90;;;;;;5018682;28;20967;-77
2022/05/10 13:34:19;;;;;;;1.30;0.93;;;26.40;99.90;;;;;;5012134;28;20457;-77
2022/05/10 13:36:49;;;;;;;2.50;1.57;;;26.30;99.90;;;;;;5029044;28;20979;-77
2022/05/10 13:39:25;;;;;;;0.70;0.20;;;26.40;99.90;;;;;;5039256;28;20480;-77